Time;durP1;ratioP1;P1;durP2;ratioP2;P2;SDS_P1;SDS_P2;PMS_P1;PMS_P2;Temp;Humidity;BMP_temperature;BMP_pressure;BME280_temperature;BME280_humidity;BME280_pressure;Samples;Min_cycle;Max_cycle;Signal;HPM_P1;HPM_P2
2023/12/28 00:01:17;;;;;;;5.00;2.23;;;;;;;;;;5031947;28;20166;-58
2023/12/28 00:03:43;;;;;;;2.40;2.07;;;;;;;;;;5032297;28;20178;-59
2023/12/28 00:06:10;;;;;;;3.00;2.00;;;;;;;;;;5030991;28;20682;-59
2023/12/28 00:08:36;;;;;;;2.57;1.87;;;;;;;;;;5032743;28;20539;-58
2023/12/28 00:11:02;;;;;;;3.10;1.87;;;;;;;;;;5031794;28;20188;-58
2023/12/28 00:13:28;;;;;;;2.07;1.93;;;;;;;;;;5030469;28;20197;-58
2023/12/28 00:15:54;;;;;;;2.53;2.20;;;;;;;;;;5031408;28;20283;-59
2023/12/28 00:18:20;;;;;;;2.03;1.83;;;;;;;;;;5031201;28;20174;-58
2023/12/28 00:20:46;;;;;;;2.27;2.00;;;;;;;;;;5031088;28;20154;-59
2023/12/28 00:23:12;;;;;;;2.00;1.80;;;;;;;;;;5032002;28;20182;-58
2023/12/28 00:25:38;;;;;;;2.07;1.87;;;;;;;;;;5030979;28;20162;-59
2023/12/28 00:28:05;;;;;;;2.27;2.07;;;;;;;;;;5033071;28;20656;-58
2023/12/28 00:30:32;;;;;;;2.03;1.83;;;;;;;;;;5031649;28;20174;-58
2023/12/28 00:32:58;;;;;;;2.07;1.87;;;;;;;;;;5032386;28;20174;-58
2023/12/28 00:35:24;;;;;;;1.60;1.50;;;;;;;;;;5028782;28;20657;-59
2023/12/28 00:37:50;;;;;;;2.73;1.97;;;;;;;;;;5028264;28;20177;-59
2023/12/28 00:40:16;;;;;;;1.93;1.80;;;;;;;;;;5028952;28;20195;-58
2023/12/28 00:42:42;;;;;;;1.90;1.80;;;;;;;;;;5031572;28;20197;-58
2023/12/28 00:45:09;;;;;;;2.00;1.80;;;;;;;;;;5030648;28;20198;-59
2023/12/28 00:47:35;;;;;;;3.07;1.93;;;;;;;;;;5032079;28;20649;-58
2023/12/28 00:50:01;;;;;;;2.13;1.70;;;;;;;;;;5030578;28;20240;-59
2023/12/28 00:52:27;;;;;;;1.97;1.80;;;;;;;;;;5034582;28;20197;-59
2023/12/28 00:54:53;;;;;;;3.27;1.90;;;;;;;;;;5030870;28;20185;-59
2023/12/28 00:57:19;;;;;;;2.00;1.80;;;;;;;;;;5030882;28;20184;-59
2023/12/28 00:59:45;;;;;;;1.77;1.67;;;;;;;;;;5030364;28;20680;-59
2023/12/28 01:02:11;;;;;;;2.83;1.80;;;;;;;;;;5034814;28;20211;-59
2023/12/28 01:04:40;;;;;;;3.13;1.97;;;;;;;;;;5028814;28;20232;-58
2023/12/28 01:07:06;;;;;;;1.97;1.77;;;;;;;;;;5028897;28;20178;-58
2023/12/28 01:09:32;;;;;;;1.97;1.80;;;;;;;;;;5029130;28;20170;-59
2023/12/28 01:11:59;;;;;;;2.17;1.93;;;;;;;;;;5030547;28;20553;-58
2023/12/28 01:14:25;;;;;;;1.97;1.80;;;;;;;;;;5031542;28;20205;-59
2023/12/28 01:16:51;;;;;;;2.57;1.90;;;;;;;;;;5031050;28;20713;-58
2023/12/28 01:19:17;;;;;;;2.63;1.83;;;;;;;;;;5035349;28;20204;-58
2023/12/28 01:21:43;;;;;;;3.57;2.23;;;;;;;;;;5031637;28;20162;-59
2023/12/28 01:24:09;;;;;;;2.50;2.20;;;;;;;;;;5029286;28;20192;-59
2023/12/28 01:26:35;;;;;;;3.50;1.80;;;;;;;;;;5030437;28;20182;-59
2023/12/28 01:29:04;;;;;;;3.40;1.90;;;;;;;;;;5029430;28;20586;-58
2023/12/28 01:31:30;;;;;;;2.00;1.90;;;;;;;;;;5030231;28;20176;-59
2023/12/28 01:33:56;;;;;;;2.07;1.63;;;;;;;;;;5029970;28;20189;-59
2023/12/28 01:36:22;;;;;;;1.90;1.70;;;;;;;;;;5031172;28;20177;-59
2023/12/28 01:38:49;;;;;;;2.00;1.70;;;;;;;;;;5029095;28;20723;-58
2023/12/28 01:41:15;;;;;;;1.87;1.70;;;;;;;;;;5028585;28;20170;-59
2023/12/28 01:43:42;;;;;;;2.50;2.00;;;;;;;;;;5026579;28;20634;-58
2023/12/28 01:46:09;;;;;;;3.07;1.80;;;;;;;;;;5031801;28;20177;-58
2023/12/28 01:48:36;;;;;;;2.73;1.77;;;;;;;;;;5035324;28;20177;-58
2023/12/28 01:51:03;;;;;;;2.10;1.90;;;;;;;;;;5028498;28;20173;-59
2023/12/28 01:53:29;;;;;;;3.07;2.10;;;;;;;;;;5029044;28;20182;-59
2023/12/28 01:55:55;;;;;;;2.00;1.80;;;;;;;;;;5027519;28;20170;-59
2023/12/28 01:58:21;;;;;;;2.20;2.00;;;;;;;;;;5029081;28;20194;-59
2023/12/28 02:00:47;;;;;;;2.67;2.43;;;;;;;;;;5027919;28;20910;-58
2023/12/28 02:03:14;;;;;;;2.33;2.13;;;;;;;;;;5028799;28;20832;-58
2023/12/28 02:05:42;;;;;;;2.30;2.10;;;;;;;;;;5029240;28;20182;-58
2023/12/28 02:08:08;;;;;;;2.30;2.00;;;;;;;;;;5030074;28;20244;-58
2023/12/28 02:10:34;;;;;;;2.47;2.00;;;;;;;;;;5029066;28;20177;-59
2023/12/28 02:13:01;;;;;;;2.20;2.00;;;;;;;;;;5030062;28;20205;-58
2023/12/28 02:15:27;;;;;;;2.13;1.87;;;;;;;;;;5027536;28;20236;-58
2023/12/28 02:17:59;;;;;;;2.17;1.87;;;;;;;;;;5029709;28;20197;-58
2023/12/28 02:20:30;;;;;;;4.90;2.23;;;;;;;;;;5029699;28;20638;-59
2023/12/28 02:22:56;;;;;;;3.50;1.80;;;;;;;;;;5030194;28;20223;-58
2023/12/28 02:25:22;;;;;;;2.03;1.93;;;;;;;;;;5029407;28;20193;-59
2023/12/28 02:27:49;;;;;;;2.03;1.90;;;;;;;;;;5029189;28;20556;-58
2023/12/28 02:30:23;;;;;;;3.50;3.20;;;;;;;;;;5022723;28;20177;-57
2023/12/28 02:33:04;;;;;;;3.93;2.17;;;;;;;;;;5029047;28;20186;-59
2023/12/28 02:35:33;;;;;;;4.33;1.90;;;;;;;;;;5028570;28;20178;-59
2023/12/28 02:38:02;;;;;;;2.30;2.20;;;;;;;;;;5029416;28;20174;-59
2023/12/28 02:40:28;;;;;;;3.07;2.43;;;;;;;;;;5028485;28;20197;-56
2023/12/28 02:42:54;;;;;;;2.40;2.20;;;;;;;;;;5028361;28;20178;-53
2023/12/28 02:45:20;;;;;;;4.83;2.10;;;;;;;;;;5029554;28;20174;-53
2023/12/28 02:47:46;;;;;;;2.40;2.20;;;;;;;;;;5032891;28;20182;-55
2023/12/28 02:50:13;;;;;;;2.20;2.00;;;;;;;;;;5027081;28;20178;-55
2023/12/28 02:52:39;;;;;;;2.20;1.97;;;;;;;;;;5030021;28;20166;-54
2023/12/28 02:55:05;;;;;;;2.37;2.17;;;;;;;;;;5026642;28;20174;-55
2023/12/28 02:57:31;;;;;;;2.20;2.00;;;;;;;;;;5023282;28;20193;-56
2023/12/28 03:00:01;;;;;;;2.00;1.90;;;;;;;;;;5026662;28;20643;-54
2023/12/28 03:02:27;;;;;;;2.60;2.20;;;;;;;;;;5030616;28;20203;-54
2023/12/28 03:04:53;;;;;;;2.47;2.27;;;;;;;;;;5031815;28;20653;-54
2023/12/28 03:07:19;;;;;;;2.90;2.17;;;;;;;;;;5037754;28;20181;-53
2023/12/28 03:09:45;;;;;;;2.43;2.10;;;;;;;;;;5029067;28;20181;-54
2023/12/28 03:12:11;;;;;;;3.87;2.20;;;;;;;;;;5027872;28;20171;-54
2023/12/28 03:14:37;;;;;;;2.90;2.30;;;;;;;;;;5033294;28;20209;-53
2023/12/28 03:17:03;;;;;;;1.90;1.80;;;;;;;;;;5032538;28;20225;-54
2023/12/28 03:19:29;;;;;;;2.33;1.93;;;;;;;;;;5031241;28;20205;-53
2023/12/28 03:21:55;;;;;;;2.50;2.30;;;;;;;;;;5032690;28;20642;-55
2023/12/28 03:24:21;;;;;;;2.17;1.97;;;;;;;;;;5033003;28;20645;-54
2023/12/28 03:26:47;;;;;;;2.70;2.20;;;;;;;;;;5033253;28;20177;-54
2023/12/28 03:29:13;;;;;;;2.20;2.00;;;;;;;;;;5028966;28;20193;-54
2023/12/28 03:31:42;;;;;;;3.13;2.63;;;;;;;;;;5030117;28;20178;-54
2023/12/28 03:34:08;;;;;;;2.20;2.00;;;;;;;;;;5030991;28;20280;-56
2023/12/28 03:36:34;;;;;;;3.57;2.10;;;;;;;;;;5028037;28;20195;-55
2023/12/28 03:39:00;;;;;;;3.47;2.03;;;;;;;;;;5031892;28;20212;-56
2023/12/28 03:41:26;;;;;;;3.17;2.40;;;;;;;;;;5032144;28;20170;-55
2023/12/28 03:43:52;;;;;;;2.00;1.80;;;;;;;;;;5032647;28;20516;-53
2023/12/28 03:46:18;;;;;;;2.43;2.10;;;;;;;;;;5029992;28;20483;-54
2023/12/28 03:48:44;;;;;;;3.40;2.50;;;;;;;;;;5029636;28;20178;-57
2023/12/28 03:51:15;;;;;;;3.67;2.20;;;;;;;;;;5030695;28;20177;-57
2023/12/28 03:53:41;;;;;;;3.33;2.30;;;;;;;;;;5033319;28;20518;-57
2023/12/28 03:56:07;;;;;;;2.20;2.00;;;;;;;;;;5030869;28;20182;-57
2023/12/28 03:58:33;;;;;;;2.37;2.17;;;;;;;;;;5030225;28;20622;-57
2023/12/28 04:00:59;;;;;;;2.43;2.10;;;;;;;;;;5032145;28;20265;-57
2023/12/28 04:03:25;;;;;;;2.60;2.40;;;;;;;;;;5030660;28;20186;-57
2023/12/28 04:05:51;;;;;;;2.83;2.10;;;;;;;;;;5031764;28;20174;-57
2023/12/28 04:08:17;;;;;;;2.53;2.33;;;;;;;;;;5025658;28;20201;-57
2023/12/28 04:10:43;;;;;;;2.87;2.30;;;;;;;;;;5031363;28;20178;-57
2023/12/28 04:13:09;;;;;;;2.43;2.23;;;;;;;;;;5033861;28;20213;-57
2023/12/28 04:15:35;;;;;;;2.40;2.20;;;;;;;;;;5028712;28;20225;-58
2023/12/28 04:18:01;;;;;;;3.43;2.60;;;;;;;;;;5026610;28;20627;-57
2023/12/28 04:20:27;;;;;;;2.33;2.13;;;;;;;;;;5031715;28;20412;-57
2023/12/28 04:22:53;;;;;;;2.53;2.00;;;;;;;;;;5030902;28;20177;-57
2023/12/28 04:25:20;;;;;;;2.50;2.10;;;;;;;;;;5031562;28;20629;-57
2023/12/28 04:27:46;;;;;;;3.57;2.40;;;;;;;;;;5027769;28;20190;-58
2023/12/28 04:30:12;;;;;;;2.80;1.97;;;;;;;;;;5032323;28;20166;-57
2023/12/28 04:32:39;;;;;;;2.87;2.17;;;;;;;;;;5026461;28;20205;-57
2023/12/28 04:35:05;;;;;;;2.30;2.10;;;;;;;;;;5030677;28;20598;-57
2023/12/28 04:37:32;;;;;;;2.93;2.40;;;;;;;;;;5030728;28;20219;-58
2023/12/28 04:39:58;;;;;;;2.37;1.90;;;;;;;;;;5027997;28;20540;-57
2023/12/28 04:42:24;;;;;;;3.80;2.57;;;;;;;;;;5031776;28;20269;-57
2023/12/28 04:44:50;;;;;;;3.10;2.00;;;;;;;;;;5031684;28;20257;-57
2023/12/28 04:47:16;;;;;;;2.70;2.20;;;;;;;;;;5030930;28;20732;-57
2023/12/28 04:49:42;;;;;;;4.33;2.07;;;;;;;;;;5029449;28;20593;-57
2023/12/28 04:52:08;;;;;;;2.17;2.00;;;;;;;;;;5031097;28;20174;-57
2023/12/28 04:54:34;;;;;;;2.97;2.20;;;;;;;;;;5031325;28;20174;-57
2023/12/28 04:57:00;;;;;;;2.33;2.13;;;;;;;;;;5030972;28;20548;-57
2023/12/28 04:59:26;;;;;;;2.40;2.20;;;;;;;;;;5030797;28;20202;-59
2023/12/28 05:01:53;;;;;;;3.40;2.30;;;;;;;;;;5030221;28;20166;-58
2023/12/28 05:04:19;;;;;;;2.73;2.53;;;;;;;;;;5031180;28;20188;-58
2023/12/28 05:06:45;;;;;;;5.03;1.73;;;;;;;;;;5031395;28;20162;-58
2023/12/28 05:09:11;;;;;;;3.30;2.03;;;;;;;;;;5030708;28;20174;-58
2023/12/28 05:11:37;;;;;;;2.80;2.10;;;;;;;;;;5030363;28;20645;-57
2023/12/28 05:14:03;;;;;;;3.67;2.33;;;;;;;;;;5030992;28;20194;-58
2023/12/28 05:16:29;;;;;;;3.00;2.20;;;;;;;;;;5028184;28;20555;-58
2023/12/28 05:18:55;;;;;;;2.70;1.83;;;;;;;;;;5030389;28;20241;-58
2023/12/28 05:21:21;;;;;;;2.67;2.47;;;;;;;;;;5030739;28;20218;-58
2023/12/28 05:23:47;;;;;;;3.03;2.20;;;;;;;;;;5031114;28;20170;-58
2023/12/28 05:26:13;;;;;;;2.53;2.33;;;;;;;;;;5029954;28;20170;-57
2023/12/28 05:28:39;;;;;;;2.87;2.27;;;;;;;;;;5030830;28;20201;-58
2023/12/28 05:31:05;;;;;;;2.77;1.90;;;;;;;;;;5028963;28;20167;-58
2023/12/28 05:33:32;;;;;;;3.33;2.40;;;;;;;;;;5031073;28;20189;-58
2023/12/28 05:35:58;;;;;;;2.33;2.13;;;;;;;;;;5028009;28;20187;-58
2023/12/28 05:38:24;;;;;;;2.03;1.83;;;;;;;;;;5031221;28;20600;-58
2023/12/28 05:40:50;;;;;;;3.03;2.40;;;;;;;;;;5029921;28;20336;-58
2023/12/28 05:43:16;;;;;;;2.37;2.13;;;;;;;;;;5037955;28;20170;-58
2023/12/28 05:45:42;;;;;;;2.17;1.97;;;;;;;;;;5027798;28;20184;-58
2023/12/28 05:48:08;;;;;;;3.43;2.23;;;;;;;;;;5030732;28;20261;-57
2023/12/28 05:50:34;;;;;;;2.60;2.20;;;;;;;;;;5030406;28;20598;-59
2023/12/28 05:53:00;;;;;;;2.27;2.00;;;;;;;;;;5029404;28;20185;-58
2023/12/28 05:55:26;;;;;;;2.33;2.13;;;;;;;;;;5030454;28;20641;-57
2023/12/28 05:57:52;;;;;;;2.07;1.87;;;;;;;;;;5032702;28;20184;-58
2023/12/28 06:00:18;;;;;;;2.33;1.90;;;;;;;;;;5024404;28;20216;-59
2023/12/28 06:02:46;;;;;;;2.00;1.80;;;;;;;;;;5026748;28;20249;-58
2023/12/28 06:05:12;;;;;;;3.80;2.10;;;;;;;;;;5025096;28;20178;-59
2023/12/28 06:07:38;;;;;;;2.30;2.07;;;;;;;;;;5029374;28;20217;-58
2023/12/28 06:10:04;;;;;;;3.27;1.90;;;;;;;;;;5029027;28;20535;-53
2023/12/28 06:12:30;;;;;;;4.53;1.87;;;;;;;;;;5028659;28;20170;-54
2023/12/28 06:14:56;;;;;;;2.17;1.83;;;;;;;;;;5029380;28;20630;-54
2023/12/28 06:17:22;;;;;;;3.17;2.03;;;;;;;;;;5027013;28;20229;-55
2023/12/28 06:19:49;;;;;;;2.97;2.00;;;;;;;;;;5027015;28;20209;-55
2023/12/28 06:22:15;;;;;;;2.37;1.90;;;;;;;;;;5032560;28;20181;-54
2023/12/28 06:24:41;;;;;;;2.50;2.03;;;;;;;;;;5029607;28;20598;-54
2023/12/28 06:27:08;;;;;;;2.23;1.90;;;;;;;;;;5021474;28;20166;-54
2023/12/28 06:29:34;;;;;;;4.50;2.17;;;;;;;;;;5028761;28;20659;-54
2023/12/28 06:32:00;;;;;;;3.50;2.20;;;;;;;;;;5024849;28;20178;-54
2023/12/28 06:34:26;;;;;;;5.20;1.87;;;;;;;;;;5028942;28;20186;-54
2023/12/28 06:36:52;;;;;;;3.50;2.13;;;;;;;;;;5027925;28;20244;-55
2023/12/28 06:39:19;;;;;;;6.03;2.30;;;;;;;;;;5027656;28;20271;-56
2023/12/28 06:41:51;;;;;;;2.90;2.07;;;;;;;;;;5025964;28;20567;-56
2023/12/28 06:44:17;;;;;;;4.23;2.20;;;;;;;;;;5026253;28;20189;-56
2023/12/28 06:46:43;;;;;;;3.53;2.20;;;;;;;;;;5027400;28;20626;-56
2023/12/28 06:49:09;;;;;;;2.57;2.00;;;;;;;;;;5026695;28;20189;-55
2023/12/28 06:51:35;;;;;;;3.50;1.90;;;;;;;;;;5028526;28;20656;-56
2023/12/28 06:54:01;;;;;;;2.43;2.20;;;;;;;;;;5029181;28;20649;-56
2023/12/28 06:56:28;;;;;;;2.37;1.90;;;;;;;;;;5025788;28;20512;-56
2023/12/28 06:58:54;;;;;;;3.27;2.30;;;;;;;;;;5028112;28;20648;-56
2023/12/28 07:01:20;;;;;;;2.60;1.70;;;;;;;;;;5027592;28;20181;-55
2023/12/28 07:03:46;;;;;;;4.53;1.80;;;;;;;;;;5028442;28;20174;-56
2023/12/28 07:06:14;;;;;;;1.93;1.73;;;;;;;;;;5029706;28;20534;-55
2023/12/28 07:08:40;;;;;;;3.53;1.80;;;;;;;;;;5027537;28;20193;-55
2023/12/28 07:11:06;;;;;;;2.67;1.93;;;;;;;;;;5033166;28;20166;-55
2023/12/28 07:13:32;;;;;;;3.67;2.10;;;;;;;;;;5029064;28;20285;-54
2023/12/28 07:15:58;;;;;;;2.23;1.90;;;;;;;;;;5022619;28;20217;-55
2023/12/28 07:18:24;;;;;;;3.40;1.93;;;;;;;;;;5027029;28;20224;-55
2023/12/28 07:20:50;;;;;;;3.47;2.20;;;;;;;;;;5028497;28;20193;-55
2023/12/28 07:23:17;;;;;;;3.30;2.20;;;;;;;;;;5033940;28;20169;-54
2023/12/28 07:25:43;;;;;;;2.70;1.97;;;;;;;;;;5029388;28;20177;-55
2023/12/28 07:28:09;;;;;;;2.73;1.63;;;;;;;;;;5027673;28;20185;-54
2023/12/28 07:30:35;;;;;;;3.90;1.93;;;;;;;;;;5023823;28;20186;-54
2023/12/28 07:33:01;;;;;;;4.03;2.10;;;;;;;;;;5026350;28;20184;-55
2023/12/28 07:35:27;;;;;;;5.20;2.20;;;;;;;;;;5027817;28;20737;-54
2023/12/28 07:37:54;;;;;;;4.23;2.43;;;;;;;;;;5026166;28;20189;-55
2023/12/28 07:40:20;;;;;;;4.47;2.13;;;;;;;;;;5025091;28;20217;-55
2023/12/28 07:42:46;;;;;;;2.73;2.00;;;;;;;;;;5024100;28;20740;-54
2023/12/28 07:45:12;;;;;;;6.07;2.37;;;;;;;;;;5026835;28;20201;-54
2023/12/28 07:47:38;;;;;;;3.23;1.77;;;;;;;;;;5027543;28;20217;-56
2023/12/28 07:50:05;;;;;;;2.47;2.03;;;;;;;;;;5030827;28;20192;-54
2023/12/28 07:52:31;;;;;;;5.80;1.70;;;;;;;;;;5030637;28;20178;-54
2023/12/28 07:54:58;;;;;;;2.43;1.90;;;;;;;;;;5031306;28;20158;-54
2023/12/28 07:57:24;;;;;;;5.23;2.00;;;;;;;;;;5030467;28;20284;-55
2023/12/28 07:59:50;;;;;;;3.03;1.80;;;;;;;;;;5031508;28;20210;-56
2023/12/28 08:02:16;;;;;;;4.70;1.80;;;;;;;;;;5029842;28;20531;-55
2023/12/28 08:04:42;;;;;;;3.87;1.80;;;;;;;;;;5036153;28;20178;-55
2023/12/28 08:07:08;;;;;;;3.90;1.80;;;;;;;;;;5030017;28;20185;-54
2023/12/28 08:09:35;;;;;;;3.50;1.67;;;;;;;;;;5031583;28;20532;-55
2023/12/28 08:12:02;;;;;;;4.50;2.03;;;;;;;;;;5031677;28;20225;-54
2023/12/28 08:14:28;;;;;;;4.30;1.83;;;;;;;;;;5030561;28;20210;-55
2023/12/28 08:16:54;;;;;;;5.00;2.30;;;;;;;;;;5031845;28;20225;-54
2023/12/28 08:19:20;;;;;;;3.60;1.97;;;;;;;;;;5030708;28;20213;-54
2023/12/28 08:21:46;;;;;;;6.27;2.90;;;;;;;;;;5030130;28;20173;-55
2023/12/28 08:24:13;;;;;;;2.87;1.87;;;;;;;;;;5026765;28;20178;-55
2023/12/28 08:26:39;;;;;;;4.37;1.90;;;;;;;;;;5030308;28;20178;-56
2023/12/28 08:29:05;;;;;;;2.97;1.80;;;;;;;;;;5030691;28;20268;-55
2023/12/28 08:31:31;;;;;;;3.10;2.10;;;;;;;;;;5030285;28;20281;-52
2023/12/28 08:33:57;;;;;;;4.70;2.63;;;;;;;;;;5030886;28;20178;-53
2023/12/28 08:36:23;;;;;;;2.50;1.80;;;;;;;;;;5029703;28;20197;-53
2023/12/28 08:38:49;;;;;;;3.50;2.00;;;;;;;;;;5028410;28;20240;-55
2023/12/28 08:41:19;;;;;;;2.77;1.73;;;;;;;;;;5031239;28;20257;-53
2023/12/28 08:43:46;;;;;;;6.77;2.97;;;;;;;;;;5030065;28;20173;-53
2023/12/28 08:46:12;;;;;;;3.20;1.87;;;;;;;;;;5026330;28;20213;-53
2023/12/28 08:48:38;;;;;;;6.20;2.27;;;;;;;;;;5030214;28;20182;-53
2023/12/28 08:51:04;;;;;;;6.00;2.27;;;;;;;;;;5031861;28;20549;-53
2023/12/28 08:53:30;;;;;;;4.73;2.57;;;;;;;;;;5031512;28;20198;-54
2023/12/28 08:55:56;;;;;;;2.70;2.20;;;;;;;;;;5030524;28;20225;-53
2023/12/28 08:58:22;;;;;;;3.67;2.37;;;;;;;;;;5025512;28;20311;-53
2023/12/28 09:00:48;;;;;;;5.80;2.03;;;;;;;;;;5030282;28;20216;-54
2023/12/28 09:03:15;;;;;;;4.93;2.20;;;;;;;;;;5031297;28;20173;-52
2023/12/28 09:05:41;;;;;;;3.93;2.50;;;;;;;;;;5028445;28;20190;-53
2023/12/28 09:08:07;;;;;;;3.20;2.03;;;;;;;;;;5027034;28;20174;-55
2023/12/28 09:10:34;;;;;;;6.37;3.20;;;;;;;;;;5026521;28;20313;-53
2023/12/28 09:13:00;;;;;;;3.37;2.00;;;;;;;;;;5030838;28;20672;-54
2023/12/28 09:15:26;;;;;;;3.97;2.57;;;;;;;;;;5026645;28;20194;-54
2023/12/28 09:17:52;;;;;;;6.83;2.37;;;;;;;;;;5028959;28;20181;-55
2023/12/28 09:20:19;;;;;;;4.90;2.43;;;;;;;;;;5029912;28;20214;-54
2023/12/28 09:22:45;;;;;;;4.03;2.30;;;;;;;;;;5027066;28;20178;-53
2023/12/28 09:25:11;;;;;;;4.53;2.43;;;;;;;;;;5029553;28;20174;-55
2023/12/28 09:27:38;;;;;;;4.77;2.00;;;;;;;;;;5030727;28;20196;-53
2023/12/28 09:30:04;;;;;;;5.70;2.47;;;;;;;;;;5025503;28;20278;-53
2023/12/28 09:32:30;;;;;;;6.00;2.10;;;;;;;;;;5021065;28;20182;-54
2023/12/28 09:34:56;;;;;;;3.50;2.03;;;;;;;;;;5028274;28;20216;-53
2023/12/28 09:37:22;;;;;;;3.23;1.90;;;;;;;;;;5030042;28;20232;-52
2023/12/28 09:39:48;;;;;;;5.47;2.50;;;;;;;;;;5033197;28;20204;-54
2023/12/28 09:42:18;;;;;;;4.80;2.10;;;;;;;;;;5032484;28;20181;-58
2023/12/28 09:44:44;;;;;;;8.17;2.40;;;;;;;;;;5030445;28;20182;-58
2023/12/28 09:47:12;;;;;;;4.13;2.20;;;;;;;;;;5030144;28;20277;-57
2023/12/28 09:49:39;;;;;;;3.03;1.90;;;;;;;;;;5022700;28;20924;-58
2023/12/28 09:52:05;;;;;;;3.33;2.13;;;;;;;;;;5028446;28;20570;-58
2023/12/28 09:54:31;;;;;;;9.17;3.00;;;;;;;;;;5023015;28;20169;-57
2023/12/28 09:56:58;;;;;;;4.23;2.07;;;;;;;;;;5030104;28;20627;-58
2023/12/28 09:59:25;;;;;;;5.07;2.17;;;;;;;;;;5028545;28;20711;-57
2023/12/28 10:01:51;;;;;;;3.83;2.40;;;;;;;;;;5029910;28;20176;-57
2023/12/28 10:04:17;;;;;;;4.43;2.50;;;;;;;;;;5036547;28;20178;-58
2023/12/28 10:06:43;;;;;;;3.80;2.07;;;;;;;;;;5027977;28;20181;-58
2023/12/28 10:09:09;;;;;;;3.93;2.20;;;;;;;;;;5028938;28;20652;-58
2023/12/28 10:11:35;;;;;;;3.43;2.47;;;;;;;;;;5027753;28;20256;-58
2023/12/28 10:14:02;;;;;;;4.20;2.10;;;;;;;;;;5027806;28;20208;-58
2023/12/28 10:16:28;;;;;;;2.97;1.97;;;;;;;;;;5030998;28;20224;-58
2023/12/28 10:18:57;;;;;;;6.10;2.50;;;;;;;;;;5032521;28;20193;-58
2023/12/28 10:21:24;;;;;;;5.73;2.47;;;;;;;;;;5027358;28;20181;-58
2023/12/28 10:23:50;;;;;;;5.23;2.07;;;;;;;;;;5026599;28;20182;-58
2023/12/28 10:26:19;;;;;;;6.03;1.87;;;;;;;;;;5025943;28;20660;-58
2023/12/28 10:28:45;;;;;;;5.17;2.13;;;;;;;;;;5021422;28;20211;-57
2023/12/28 10:31:11;;;;;;;4.50;2.20;;;;;;;;;;5027348;28;20573;-57
2023/12/28 10:33:38;;;;;;;6.60;2.23;;;;;;;;;;5027155;28;20243;-57
2023/12/28 10:36:06;;;;;;;3.17;1.83;;;;;;;;;;5027950;28;20532;-58
2023/12/28 10:38:36;;;;;;;4.03;2.47;;;;;;;;;;5025848;28;20193;-58
2023/12/28 10:41:04;;;;;;;7.17;2.10;;;;;;;;;;5027381;28;20291;-58
2023/12/28 10:43:32;;;;;;;8.00;2.60;;;;;;;;;;5021497;28;20627;-58
2023/12/28 10:45:58;;;;;;;4.93;2.33;;;;;;;;;;5025539;28;20189;-58
2023/12/28 10:48:30;;;;;;;8.30;2.70;;;;;;;;;;5027252;28;20174;-58
2023/12/28 10:50:57;;;;;;;6.57;2.10;;;;;;;;;;5021017;28;20596;-54
2023/12/28 10:53:34;;;;;;;6.90;3.00;;;;;;;;;;5027439;28;20190;-56
2023/12/28 10:56:12;;;;;;;10.87;2.97;;;;;;;;;;5026416;28;20197;-55
2023/12/28 10:58:53;;;;;;;5.13;2.50;;;;;;;;;;5025776;28;20738;-52
2023/12/28 11:01:25;;;;;;;13.70;2.80;;;;;;;;;;5020619;28;20196;-54
2023/12/28 11:03:53;;;;;;;7.63;2.57;;;;;;;;;;5023763;28;20671;-54
2023/12/28 11:06:20;;;;;;;13.63;2.97;;;;;;;;;;5026107;28;20672;-54
2023/12/28 11:08:51;;;;;;;5.83;2.30;;;;;;;;;;5026225;28;20178;-53
2023/12/28 11:11:17;;;;;;;5.20;2.40;;;;;;;;;;5025880;28;20623;-52
2023/12/28 11:13:45;;;;;;;9.57;2.60;;;;;;;;;;5026089;28;20289;-54
2023/12/28 11:16:11;;;;;;;9.87;2.83;;;;;;;;;;5025078;28;20213;-55
2023/12/28 11:18:37;;;;;;;6.33;2.17;;;;;;;;;;5023507;28;20549;-54
2023/12/28 11:21:04;;;;;;;6.87;2.10;;;;;;;;;;5028087;28;20759;-54
2023/12/28 11:23:31;;;;;;;5.63;2.07;;;;;;;;;;5029245;28;20186;-53
2023/12/28 11:25:57;;;;;;;5.67;2.37;;;;;;;;;;5031497;28;20693;-54
2023/12/28 11:28:24;;;;;;;5.83;1.90;;;;;;;;;;5031474;28;20189;-53
2023/12/28 11:30:51;;;;;;;4.53;2.37;;;;;;;;;;5031616;28;20200;-52
2023/12/28 11:33:18;;;;;;;9.03;1.87;;;;;;;;;;5032199;28;20263;-53
2023/12/28 11:35:44;;;;;;;6.27;2.07;;;;;;;;;;5032439;28;20190;-53
2023/12/28 11:38:11;;;;;;;3.90;1.93;;;;;;;;;;5030249;28;20193;-54
2023/12/28 11:40:44;;;;;;;7.53;2.47;;;;;;;;;;5029178;28;20213;-54
2023/12/28 11:43:20;;;;;;;5.43;2.10;;;;;;;;;;5029544;28;20637;-54
2023/12/28 11:45:50;;;;;;;3.60;1.87;;;;;;;;;;5030750;28;20703;-53
2023/12/28 11:48:26;;;;;;;4.30;1.97;;;;;;;;;;5027122;28;20661;-58
2023/12/28 11:50:54;;;;;;;4.33;1.80;;;;;;;;;;5030623;28;20236;-58
2023/12/28 11:53:21;;;;;;;6.13;2.40;;;;;;;;;;5031078;28;20272;-58
2023/12/28 11:55:47;;;;;;;2.27;1.83;;;;;;;;;;5031798;28;20193;-58
2023/12/28 11:58:13;;;;;;;4.70;2.10;;;;;;;;;;5029691;28;20530;-58
2023/12/28 12:00:40;;;;;;;4.33;2.17;;;;;;;;;;5032286;28;20194;-54
2023/12/28 12:03:06;;;;;;;4.53;2.10;;;;;;;;;;5029750;28;20182;-54
2023/12/28 12:05:32;;;;;;;3.13;2.10;;;;;;;;;;5029690;28;20252;-54
2023/12/28 12:07:58;;;;;;;4.87;2.43;;;;;;;;;;5029218;28;20630;-54
2023/12/28 12:10:24;;;;;;;5.03;2.23;;;;;;;;;;5030687;28;20649;-53
2023/12/28 12:12:53;;;;;;;5.60;1.93;;;;;;;;;;5025035;28;20213;-54
2023/12/28 12:15:20;;;;;;;3.80;2.33;;;;;;;;;;5030603;28;20182;-53
2023/12/28 12:17:46;;;;;;;4.40;1.77;;;;;;;;;;5028408;28;20273;-53
2023/12/28 12:20:12;;;;;;;6.77;2.33;;;;;;;;;;5030401;28;20972;-54
2023/12/28 12:22:39;;;;;;;9.13;2.63;;;;;;;;;;5029631;28;20557;-54
2023/12/28 12:25:07;;;;;;;4.77;2.33;;;;;;;;;;5027106;28;20179;-54
2023/12/28 12:27:39;;;;;;;5.83;2.20;;;;;;;;;;5029815;28;20656;-54
2023/12/28 12:30:06;;;;;;;5.10;2.60;;;;;;;;;;5030034;28;20741;-54
2023/12/28 12:32:32;;;;;;;6.97;2.63;;;;;;;;;;5028962;28;20270;-53
2023/12/28 12:34:58;;;;;;;6.37;2.33;;;;;;;;;;5030303;28;20275;-53
2023/12/28 12:37:24;;;;;;;10.30;2.47;;;;;;;;;;5032011;28;20563;-54
2023/12/28 12:39:50;;;;;;;6.37;2.30;;;;;;;;;;5028824;28;20207;-54
2023/12/28 12:42:17;;;;;;;5.30;2.47;;;;;;;;;;5024763;28;20549;-55
2023/12/28 12:44:43;;;;;;;4.97;2.60;;;;;;;;;;5031126;28;20191;-55
2023/12/28 12:47:09;;;;;;;4.80;2.80;;;;;;;;;;5024016;28;20665;-54
2023/12/28 12:49:35;;;;;;;4.47;2.07;;;;;;;;;;5029578;28;20186;-55
2023/12/28 12:52:01;;;;;;;5.47;2.20;;;;;;;;;;5034235;28;20187;-55
2023/12/28 12:54:28;;;;;;;5.47;2.10;;;;;;;;;;5030637;28;20688;-56
2023/12/28 12:56:56;;;;;;;6.63;2.17;;;;;;;;;;5034520;28;20181;-55
2023/12/28 12:59:23;;;;;;;5.23;2.30;;;;;;;;;;5016423;28;20636;-56
2023/12/28 13:01:49;;;;;;;4.17;2.30;;;;;;;;;;5026296;28;20543;-53
2023/12/28 13:04:18;;;;;;;4.20;2.53;;;;;;;;;;5028633;28;20188;-53
2023/12/28 13:06:44;;;;;;;9.97;2.60;;;;;;;;;;5029475;28;20182;-54
2023/12/28 13:09:11;;;;;;;4.93;2.20;;;;;;;;;;5030366;28;20236;-54
2023/12/28 13:11:37;;;;;;;8.37;2.80;;;;;;;;;;5030688;28;20190;-57
2023/12/28 13:14:04;;;;;;;6.67;2.10;;;;;;;;;;5023577;28;20697;-56
2023/12/28 13:16:30;;;;;;;8.00;2.33;;;;;;;;;;5023217;28;20229;-55
2023/12/28 13:18:57;;;;;;;5.50;2.40;;;;;;;;;;5029005;28;20185;-56
2023/12/28 13:21:23;;;;;;;2.73;2.00;;;;;;;;;;5028757;28;20265;-57
2023/12/28 13:23:49;;;;;;;6.57;2.10;;;;;;;;;;5026086;28;20277;-56
2023/12/28 13:26:15;;;;;;;6.70;2.10;;;;;;;;;;5028693;28;20178;-56
2023/12/28 13:28:42;;;;;;;4.60;2.27;;;;;;;;;;5028636;28;20611;-56
2023/12/28 13:31:08;;;;;;;5.63;2.17;;;;;;;;;;5027103;28;20265;-56
2023/12/28 13:33:35;;;;;;;5.67;2.33;;;;;;;;;;5029425;28;20178;-56
2023/12/28 13:36:01;;;;;;;7.50;2.47;;;;;;;;;;5034736;28;20178;-56
2023/12/28 13:38:27;;;;;;;6.43;3.10;;;;;;;;;;5029444;28;20646;-56
2023/12/28 13:40:53;;;;;;;6.70;2.60;;;;;;;;;;5026904;28;20264;-57
2023/12/28 13:43:19;;;;;;;3.63;1.80;;;;;;;;;;5029048;28;20193;-56
2023/12/28 13:45:45;;;;;;;6.13;2.43;;;;;;;;;;5030893;28;20228;-56
2023/12/28 13:48:11;;;;;;;3.40;2.23;;;;;;;;;;5029367;28;20190;-56
2023/12/28 13:50:37;;;;;;;6.40;2.60;;;;;;;;;;5029484;28;20197;-57
2023/12/28 13:53:06;;;;;;;4.83;2.20;;;;;;;;;;5027121;28;20185;-57
2023/12/28 13:55:33;;;;;;;6.60;2.13;;;;;;;;;;5028852;28;20189;-56
2023/12/28 13:57:59;;;;;;;6.33;2.63;;;;;;;;;;5028239;28;20649;-56
2023/12/28 14:00:25;;;;;;;6.37;2.60;;;;;;;;;;5030120;28;20263;-56
2023/12/28 14:02:52;;;;;;;4.63;2.33;;;;;;;;;;5033966;28;20677;-56
2023/12/28 14:05:19;;;;;;;6.20;2.17;;;;;;;;;;5026950;28;20678;-56
2023/12/28 14:07:45;;;;;;;4.37;2.13;;;;;;;;;;5034939;28;20628;-56
2023/12/28 14:10:11;;;;;;;4.03;1.60;;;;;;;;;;5028458;28;20192;-57
2023/12/28 14:12:37;;;;;;;6.30;1.97;;;;;;;;;;5021625;28;20655;-56
2023/12/28 14:15:07;;;;;;;4.77;1.90;;;;;;;;;;5023208;28;20269;-56
2023/12/28 14:17:33;;;;;;;4.83;2.40;;;;;;;;;;5033852;28;20247;-56
2023/12/28 14:19:59;;;;;;;4.13;1.80;;;;;;;;;;5028358;28;20208;-54
2023/12/28 14:22:25;;;;;;;4.30;2.00;;;;;;;;;;5031403;28;20272;-55
2023/12/28 14:24:52;;;;;;;4.87;2.67;;;;;;;;;;5027895;28;20174;-55
2023/12/28 14:27:19;;;;;;;4.57;1.90;;;;;;;;;;5029834;28;20253;-54
2023/12/28 14:29:45;;;;;;;5.13;2.03;;;;;;;;;;5028434;28;20267;-54
2023/12/28 14:32:12;;;;;;;4.87;2.50;;;;;;;;;;5021583;28;20192;-58
2023/12/28 14:34:38;;;;;;;4.70;2.20;;;;;;;;;;5025551;28;20228;-58
2023/12/28 14:37:04;;;;;;;6.70;2.20;;;;;;;;;;5028630;28;20213;-58
2023/12/28 14:39:30;;;;;;;4.90;2.07;;;;;;;;;;5028203;28;20208;-58